Terminal Aerodrome Forecast
Issued by NWS Austin/San Antonio, TX

Home | Current Version | Previous Version | Text Only | Print | Product List | Glossary On
Versions: 1 2 3 4 5 6 7 8 9 10 11 12 13 14 15 16
000
FTUS44 KEWX 282336
TAFDRT
TAF
KDRT 282336Z 2900/2924 05015G25KT P6SM VCTS SCT050CB BKN250
      TEMPO 2900/2902 3SM TSRA BKN030CB
     FM290200 09007KT P6SM SCT050 BKN250
     FM291100 09007KT P6SM SCT015
     FM291500 09007KT P6SM SCT040
     FM292200 07010KT P6SM VCSH BKN050 BKN250=

USA.gov is the U.S. government's official web portal to all federal, state and local government web resources and services.